sensor_id;sensor_type;location;lat;lon;timestamp;temperature;humidity
20977;DHT22;10647;51.016;3.720;2023-07-13T00:00:47;17.40;99.90
20977;DHT22;10647;51.016;3.720;2023-07-13T00:03:15;17.30;99.90
20977;DHT22;10647;51.016;3.720;2023-07-13T00:05:43;17.30;99.90
20977;DHT22;10647;51.016;3.720;2023-07-13T00:08:11;17.30;99.90
20977;DHT22;10647;51.016;3.720;2023-07-13T00:10:41;17.30;99.90
20977;DHT22;10647;51.016;3.720;2023-07-13T00:13:09;17.10;99.90
20977;DHT22;10647;51.016;3.720;2023-07-13T00:15:37;17.10;99.90
20977;DHT22;10647;51.016;3.720;2023-07-13T00:18:04;17.00;99.90
20977;DHT22;10647;51.016;3.720;2023-07-13T00:20:32;16.80;99.90
20977;DHT22;10647;51.016;3.720;2023-07-13T00:22:59;16.70;99.90
20977;DHT22;10647;51.016;3.720;2023-07-13T00:25:27;16.90;99.90
20977;DHT22;10647;51.016;3.720;2023-07-13T00:27:55;16.90;99.90
20977;DHT22;10647;51.016;3.720;2023-07-13T00:30:22;16.90;99.90
20977;DHT22;10647;51.016;3.720;2023-07-13T00:32:50;16.80;99.90
20977;DHT22;10647;51.016;3.720;2023-07-13T00:35:17;16.70;99.90
20977;DHT22;10647;51.016;3.720;2023-07-13T00:37:45;16.90;99.90
20977;DHT22;10647;51.016;3.720;2023-07-13T00:40:14;17.00;99.90
20977;DHT22;10647;51.016;3.720;2023-07-13T00:42:41;17.20;99.90
20977;DHT22;10647;51.016;3.720;2023-07-13T00:47:43;17.20;99.90
20977;DHT22;10647;51.016;3.720;2023-07-13T00:50:14;17.00;99.90
20977;DHT22;10647;51.016;3.720;2023-07-13T00:52:44;16.80;99.90
20977;DHT22;10647;51.016;3.720;2023-07-13T00:55:13;16.80;99.90
20977;DHT22;10647;51.016;3.720;2023-07-13T00:57:41;16.60;99.90
20977;DHT22;10647;51.016;3.720;2023-07-13T01:00:10;16.70;99.90
20977;DHT22;10647;51.016;3.720;2023-07-13T01:02:41;16.60;99.90
20977;DHT22;10647;51.016;3.720;2023-07-13T01:05:13;17.00;99.90
20977;DHT22;10647;51.016;3.720;2023-07-13T01:07:41;17.10;99.90
20977;DHT22;10647;51.016;3.720;2023-07-13T01:10:11;16.90;99.90
20977;DHT22;10647;51.016;3.720;2023-07-13T01:12:39;16.70;99.90
20977;DHT22;10647;51.016;3.720;2023-07-13T01:17:54;16.80;99.90
20977;DHT22;10647;51.016;3.720;2023-07-13T01:20:22;16.80;99.90
20977;DHT22;10647;51.016;3.720;2023-07-13T01:22:51;16.70;99.90
20977;DHT22;10647;51.016;3.720;2023-07-13T01:25:19;16.50;99.90
20977;DHT22;10647;51.016;3.720;2023-07-13T01:27:47;16.80;99.90
20977;DHT22;10647;51.016;3.720;2023-07-13T01:30:15;16.50;99.90
20977;DHT22;10647;51.016;3.720;2023-07-13T01:32:43;16.60;99.90
20977;DHT22;10647;51.016;3.720;2023-07-13T01:35:10;16.70;99.90
20977;DHT22;10647;51.016;3.720;2023-07-13T01:37:39;16.50;99.90
20977;DHT22;10647;51.016;3.720;2023-07-13T01:40:07;16.70;99.90
20977;DHT22;10647;51.016;3.720;2023-07-13T01:42:36;16.80;99.90
20977;DHT22;10647;51.016;3.720;2023-07-13T01:45:04;16.60;99.90
20977;DHT22;10647;51.016;3.720;2023-07-13T01:47:32;16.50;99.90
20977;DHT22;10647;51.016;3.720;2023-07-13T01:49:59;16.40;99.90
20977;DHT22;10647;51.016;3.720;2023-07-13T01:52:27;16.50;99.90
20977;DHT22;10647;51.016;3.720;2023-07-13T01:54:54;16.40;99.90
20977;DHT22;10647;51.016;3.720;2023-07-13T01:57:22;16.50;99.90
20977;DHT22;10647;51.016;3.720;2023-07-13T01:59:49;16.70;99.90
20977;DHT22;10647;51.016;3.720;2023-07-13T02:02:17;16.70;99.90
20977;DHT22;10647;51.016;3.720;2023-07-13T02:04:44;16.50;99.90
20977;DHT22;10647;51.016;3.720;2023-07-13T02:07:12;16.40;99.90
20977;DHT22;10647;51.016;3.720;2023-07-13T02:09:39;16.20;99.90
20977;DHT22;10647;51.016;3.720;2023-07-13T02:12:09;16.30;99.90
20977;DHT22;10647;51.016;3.720;2023-07-13T02:14:37;16.40;99.90
20977;DHT22;10647;51.016;3.720;2023-07-13T02:17:05;16.10;99.90
20977;DHT22;10647;51.016;3.720;2023-07-13T02:19:32;16.20;99.90
20977;DHT22;10647;51.016;3.720;2023-07-13T02:22:00;16.40;99.90
20977;DHT22;10647;51.016;3.720;2023-07-13T02:24:28;16.50;99.90
20977;DHT22;10647;51.016;3.720;2023-07-13T02:26:55;16.30;99.90
20977;DHT22;10647;51.016;3.720;2023-07-13T02:29:23;16.20;99.90
20977;DHT22;10647;51.016;3.720;2023-07-13T02:31:51;16.20;99.90
20977;DHT22;10647;51.016;3.720;2023-07-13T02:34:18;16.40;99.90
20977;DHT22;10647;51.016;3.720;2023-07-13T02:36:46;16.60;99.90
20977;DHT22;10647;51.016;3.720;2023-07-13T02:39:13;16.50;99.90
20977;DHT22;10647;51.016;3.720;2023-07-13T02:41:41;16.40;99.90
20977;DHT22;10647;51.016;3.720;2023-07-13T02:44:09;16.40;99.90
20977;DHT22;10647;51.016;3.720;2023-07-13T02:46:37;16.50;99.90
20977;DHT22;10647;51.016;3.720;2023-07-13T02:49:05;16.40;99.90
20977;DHT22;10647;51.016;3.720;2023-07-13T02:51:33;16.20;99.90
20977;DHT22;10647;51.016;3.720;2023-07-13T02:54:02;16.30;99.90
20977;DHT22;10647;51.016;3.720;2023-07-13T02:56:32;16.30;99.90
20977;DHT22;10647;51.016;3.720;2023-07-13T02:58:59;16.30;99.90
20977;DHT22;10647;51.016;3.720;2023-07-13T03:01:27;16.00;99.90
20977;DHT22;10647;51.016;3.720;2023-07-13T03:03:55;15.90;99.90
20977;DHT22;10647;51.016;3.720;2023-07-13T03:06:22;16.00;99.90
20977;DHT22;10647;51.016;3.720;2023-07-13T03:08:51;16.20;99.90
20977;DHT22;10647;51.016;3.720;2023-07-13T03:11:20;16.40;99.90
20977;DHT22;10647;51.016;3.720;2023-07-13T03:13:48;16.10;99.90
20977;DHT22;10647;51.016;3.720;2023-07-13T03:16:16;16.20;99.90
20977;DHT22;10647;51.016;3.720;2023-07-13T03:18:44;16.20;99.90
20977;DHT22;10647;51.016;3.720;2023-07-13T03:21:11;16.20;99.90
20977;DHT22;10647;51.016;3.720;2023-07-13T03:23:40;16.10;99.90
20977;DHT22;10647;51.016;3.720;2023-07-13T03:26:10;16.20;99.90
20977;DHT22;10647;51.016;3.720;2023-07-13T03:28:40;16.20;99.90
20977;DHT22;10647;51.016;3.720;2023-07-13T03:31:10;16.50;99.90
20977;DHT22;10647;51.016;3.720;2023-07-13T03:33:38;16.40;99.90
20977;DHT22;10647;51.016;3.720;2023-07-13T03:36:07;16.30;99.90
20977;DHT22;10647;51.016;3.720;2023-07-13T03:38:35;16.50;99.90
20977;DHT22;10647;51.016;3.720;2023-07-13T03:41:02;16.10;99.90
20977;DHT22;10647;51.016;3.720;2023-07-13T03:43:30;16.10;99.90
20977;DHT22;10647;51.016;3.720;2023-07-13T03:45:58;16.20;99.90
20977;DHT22;10647;51.016;3.720;2023-07-13T03:48:25;16.10;99.90
20977;DHT22;10647;51.016;3.720;2023-07-13T03:50:53;16.00;99.90
20977;DHT22;10647;51.016;3.720;2023-07-13T03:53:20;16.20;99.90
20977;DHT22;10647;51.016;3.720;2023-07-13T03:55:48;16.10;99.90
20977;DHT22;10647;51.016;3.720;2023-07-13T03:58:36;16.10;99.90
20977;DHT22;10647;51.016;3.720;2023-07-13T04:03:53;16.10;99.90
20977;DHT22;10647;51.016;3.720;2023-07-13T04:06:23;16.10;99.90
20977;DHT22;10647;51.016;3.720;2023-07-13T04:08:57;16.20;99.90
20977;DHT22;10647;51.016;3.720;2023-07-13T04:11:27;16.30;99.90
20977;DHT22;10647;51.016;3.720;2023-07-13T04:13:55;16.50;99.90
20977;DHT22;10647;51.016;3.720;2023-07-13T04:16:23;16.70;99.90
20977;DHT22;10647;51.016;3.720;2023-07-13T04:18:51;16.70;99.90
20977;DHT22;10647;51.016;3.720;2023-07-13T04:21:21;16.80;99.90
20977;DHT22;10647;51.016;3.720;2023-07-13T04:23:49;16.90;99.90
20977;DHT22;10647;51.016;3.720;2023-07-13T04:26:16;16.80;99.90
20977;DHT22;10647;51.016;3.720;2023-07-13T04:28:46;16.90;99.90
20977;DHT22;10647;51.016;3.720;2023-07-13T04:31:15;16.90;99.90
20977;DHT22;10647;51.016;3.720;2023-07-13T04:33:42;17.00;99.90
20977;DHT22;10647;51.016;3.720;2023-07-13T04:36:10;17.20;99.90
20977;DHT22;10647;51.016;3.720;2023-07-13T04:38:38;16.90;99.90
20977;DHT22;10647;51.016;3.720;2023-07-13T04:41:07;17.00;99.90
20977;DHT22;10647;51.016;3.720;2023-07-13T04:43:35;17.10;99.90
20977;DHT22;10647;51.016;3.720;2023-07-13T04:46:05;17.30;99.90
20977;DHT22;10647;51.016;3.720;2023-07-13T04:48:33;17.40;99.90
20977;DHT22;10647;51.016;3.720;2023-07-13T04:51:02;17.20;99.90
20977;DHT22;10647;51.016;3.720;2023-07-13T04:53:30;17.20;99.90
20977;DHT22;10647;51.016;3.720;2023-07-13T04:55:58;17.30;99.90
20977;DHT22;10647;51.016;3.720;2023-07-13T04:58:26;17.20;99.90
20977;DHT22;10647;51.016;3.720;2023-07-13T05:01:06;17.10;99.90
20977;DHT22;10647;51.016;3.720;2023-07-13T05:03:30;17.40;99.90
20977;DHT22;10647;51.016;3.720;2023-07-13T05:06:01;17.10;99.90
20977;DHT22;10647;51.016;3.720;2023-07-13T05:08:28;17.40;99.90
20977;DHT22;10647;51.016;3.720;2023-07-13T05:10:56;17.40;99.90
20977;DHT22;10647;51.016;3.720;2023-07-13T05:13:25;17.40;99.90
20977;DHT22;10647;51.016;3.720;2023-07-13T05:15:59;17.40;99.90
20977;DHT22;10647;51.016;3.720;2023-07-13T05:18:27;17.70;99.90
20977;DHT22;10647;51.016;3.720;2023-07-13T05:21:06;17.80;99.90
20977;DHT22;10647;51.016;3.720;2023-07-13T05:23:27;17.60;99.90
20977;DHT22;10647;51.016;3.720;2023-07-13T05:25:54;17.80;99.90
20977;DHT22;10647;51.016;3.720;2023-07-13T05:28:22;17.70;99.90
20977;DHT22;10647;51.016;3.720;2023-07-13T05:30:50;17.70;99.90
20977;DHT22;10647;51.016;3.720;2023-07-13T05:33:18;17.60;99.90
20977;DHT22;10647;51.016;3.720;2023-07-13T05:35:46;17.80;99.90
20977;DHT22;10647;51.016;3.720;2023-07-13T05:38:14;18.00;99.90
20977;DHT22;10647;51.016;3.720;2023-07-13T05:40:45;17.70;99.90
20977;DHT22;10647;51.016;3.720;2023-07-13T05:43:13;17.90;99.90
20977;DHT22;10647;51.016;3.720;2023-07-13T05:45:42;18.00;99.90
20977;DHT22;10647;51.016;3.720;2023-07-13T05:48:09;18.50;99.90
20977;DHT22;10647;51.016;3.720;2023-07-13T05:50:37;18.50;99.90
20977;DHT22;10647;51.016;3.720;2023-07-13T05:53:05;18.60;99.90
20977;DHT22;10647;51.016;3.720;2023-07-13T05:55:32;18.40;99.90
20977;DHT22;10647;51.016;3.720;2023-07-13T05:58:01;18.60;99.90
20977;DHT22;10647;51.016;3.720;2023-07-13T06:00:28;18.90;99.90
20977;DHT22;10647;51.016;3.720;2023-07-13T06:02:56;18.50;99.90
20977;DHT22;10647;51.016;3.720;2023-07-13T06:05:25;18.40;99.90
20977;DHT22;10647;51.016;3.720;2023-07-13T06:07:53;18.70;99.90
20977;DHT22;10647;51.016;3.720;2023-07-13T06:10:21;18.80;99.90
20977;DHT22;10647;51.016;3.720;2023-07-13T06:12:49;18.60;99.90
20977;DHT22;10647;51.016;3.720;2023-07-13T06:15:16;19.00;99.90
20977;DHT22;10647;51.016;3.720;2023-07-13T06:17:44;19.00;99.90
20977;DHT22;10647;51.016;3.720;2023-07-13T06:20:11;19.00;99.90
20977;DHT22;10647;51.016;3.720;2023-07-13T06:22:39;19.00;99.90
20977;DHT22;10647;51.016;3.720;2023-07-13T06:25:07;19.10;99.90
20977;DHT22;10647;51.016;3.720;2023-07-13T06:27:35;19.00;99.90
20977;DHT22;10647;51.016;3.720;2023-07-13T06:30:02;18.70;99.90
20977;DHT22;10647;51.016;3.720;2023-07-13T06:32:30;18.50;99.90
20977;DHT22;10647;51.016;3.720;2023-07-13T06:34:57;18.40;99.90
20977;DHT22;10647;51.016;3.720;2023-07-13T06:37:25;18.60;99.90
20977;DHT22;10647;51.016;3.720;2023-07-13T06:39:53;18.90;99.90
20977;DHT22;10647;51.016;3.720;2023-07-13T06:42:20;18.90;99.90
20977;DHT22;10647;51.016;3.720;2023-07-13T06:44:48;19.10;99.90
20977;DHT22;10647;51.016;3.720;2023-07-13T06:47:15;19.00;99.90
20977;DHT22;10647;51.016;3.720;2023-07-13T06:49:43;19.40;99.90
20977;DHT22;10647;51.016;3.720;2023-07-13T06:52:10;19.60;99.90
20977;DHT22;10647;51.016;3.720;2023-07-13T06:54:37;19.50;99.90
20977;DHT22;10647;51.016;3.720;2023-07-13T06:57:05;19.70;99.90
20977;DHT22;10647;51.016;3.720;2023-07-13T06:59:33;19.90;99.90
20977;DHT22;10647;51.016;3.720;2023-07-13T07:02:01;20.20;99.90
20977;DHT22;10647;51.016;3.720;2023-07-13T07:04:28;20.40;99.90
20977;DHT22;10647;51.016;3.720;2023-07-13T07:06:56;20.20;99.90
20977;DHT22;10647;51.016;3.720;2023-07-13T07:09:23;20.40;99.90
20977;DHT22;10647;51.016;3.720;2023-07-13T07:11:51;19.80;99.90
20977;DHT22;10647;51.016;3.720;2023-07-13T07:14:18;19.40;99.90
20977;DHT22;10647;51.016;3.720;2023-07-13T07:16:46;19.60;99.90
20977;DHT22;10647;51.016;3.720;2023-07-13T07:19:13;19.90;99.90
20977;DHT22;10647;51.016;3.720;2023-07-13T07:21:41;20.40;99.90
20977;DHT22;10647;51.016;3.720;2023-07-13T07:24:08;20.10;99.90
20977;DHT22;10647;51.016;3.720;2023-07-13T07:26:36;20.30;99.90
20977;DHT22;10647;51.016;3.720;2023-07-13T07:29:03;20.10;99.90
20977;DHT22;10647;51.016;3.720;2023-07-13T07:31:31;20.30;99.90
20977;DHT22;10647;51.016;3.720;2023-07-13T07:33:59;20.20;99.90
20977;DHT22;10647;51.016;3.720;2023-07-13T07:36:27;20.80;99.90
20977;DHT22;10647;51.016;3.720;2023-07-13T07:38:54;20.70;99.90
20977;DHT22;10647;51.016;3.720;2023-07-13T07:41:22;21.10;99.90
20977;DHT22;10647;51.016;3.720;2023-07-13T07:43:50;21.40;99.90
20977;DHT22;10647;51.016;3.720;2023-07-13T07:46:17;21.70;99.90
20977;DHT22;10647;51.016;3.720;2023-07-13T07:48:45;22.00;99.90
20977;DHT22;10647;51.016;3.720;2023-07-13T07:51:12;22.70;99.90
20977;DHT22;10647;51.016;3.720;2023-07-13T07:53:41;22.90;99.70
20977;DHT22;10647;51.016;3.720;2023-07-13T07:56:08;22.70;99.90
20977;DHT22;10647;51.016;3.720;2023-07-13T07:58:36;22.60;99.90
20977;DHT22;10647;51.016;3.720;2023-07-13T08:01:05;22.70;99.90
20977;DHT22;10647;51.016;3.720;2023-07-13T08:03:33;22.90;99.30
20977;DHT22;10647;51.016;3.720;2023-07-13T08:06:00;22.40;99.60
20977;DHT22;10647;51.016;3.720;2023-07-13T08:08:28;21.90;99.90
20977;DHT22;10647;51.016;3.720;2023-07-13T08:10:56;21.60;99.90
20977;DHT22;10647;51.016;3.720;2023-07-13T08:13:23;21.20;99.90
20977;DHT22;10647;51.016;3.720;2023-07-13T08:15:51;21.90;99.90
20977;DHT22;10647;51.016;3.720;2023-07-13T08:18:18;21.80;99.40
20977;DHT22;10647;51.016;3.720;2023-07-13T08:20:46;21.90;99.90
20977;DHT22;10647;51.016;3.720;2023-07-13T08:23:13;22.40;99.60
20977;DHT22;10647;51.016;3.720;2023-07-13T08:25:42;22.40;97.90
20977;DHT22;10647;51.016;3.720;2023-07-13T08:28:10;22.80;98.10
20977;DHT22;10647;51.016;3.720;2023-07-13T08:30:38;23.30;96.90
20977;DHT22;10647;51.016;3.720;2023-07-13T08:33:05;22.90;96.90
20977;DHT22;10647;51.016;3.720;2023-07-13T08:35:33;22.70;97.80
20977;DHT22;10647;51.016;3.720;2023-07-13T08:38:00;23.10;96.50
20977;DHT22;10647;51.016;3.720;2023-07-13T08:40:28;23.10;96.40
20977;DHT22;10647;51.016;3.720;2023-07-13T08:42:57;23.20;95.60
20977;DHT22;10647;51.016;3.720;2023-07-13T08:45:46;23.40;95.50
20977;DHT22;10647;51.016;3.720;2023-07-13T08:48:20;23.50;95.20
20977;DHT22;10647;51.016;3.720;2023-07-13T08:50:57;24.10;93.70
20977;DHT22;10647;51.016;3.720;2023-07-13T08:53:19;23.10;94.60
20977;DHT22;10647;51.016;3.720;2023-07-13T08:55:47;22.40;95.60
20977;DHT22;10647;51.016;3.720;2023-07-13T08:58:16;22.60;96.00
20977;DHT22;10647;51.016;3.720;2023-07-13T09:00:55;22.80;95.30
20977;DHT22;10647;51.016;3.720;2023-07-13T09:03:23;23.80;94.50
20977;DHT22;10647;51.016;3.720;2023-07-13T09:05:59;23.70;93.40
20977;DHT22;10647;51.016;3.720;2023-07-13T09:08:35;23.80;92.80
20977;DHT22;10647;51.016;3.720;2023-07-13T09:13:56;24.20;91.70
20977;DHT22;10647;51.016;3.720;2023-07-13T09:16:22;24.00;91.40
20977;DHT22;10647;51.016;3.720;2023-07-13T09:18:51;23.70;91.30
20977;DHT22;10647;51.016;3.720;2023-07-13T09:21:36;23.90;91.30
20977;DHT22;10647;51.016;3.720;2023-07-13T09:24:22;23.50;92.40
20977;DHT22;10647;51.016;3.720;2023-07-13T09:26:32;23.50;92.60
20977;DHT22;10647;51.016;3.720;2023-07-13T09:29:11;23.70;92.20
20977;DHT22;10647;51.016;3.720;2023-07-13T09:31:46;24.00;92.20
20977;DHT22;10647;51.016;3.720;2023-07-13T09:34:13;24.50;91.40
20977;DHT22;10647;51.016;3.720;2023-07-13T09:36:41;24.40;90.90
20977;DHT22;10647;51.016;3.720;2023-07-13T09:39:14;24.70;90.20
20977;DHT22;10647;51.016;3.720;2023-07-13T09:44:34;23.80;91.30
20977;DHT22;10647;51.016;3.720;2023-07-13T09:47:02;24.40;90.90
20977;DHT22;10647;51.016;3.720;2023-07-13T09:49:36;24.60;90.50
20977;DHT22;10647;51.016;3.720;2023-07-13T09:52:03;24.10;90.80
20977;DHT22;10647;51.016;3.720;2023-07-13T09:54:33;23.90;90.50
20977;DHT22;10647;51.016;3.720;2023-07-13T09:57:03;23.90;90.40
20977;DHT22;10647;51.016;3.720;2023-07-13T09:59:34;23.80;90.20
20977;DHT22;10647;51.016;3.720;2023-07-13T10:02:02;23.90;90.50
20977;DHT22;10647;51.016;3.720;2023-07-13T10:04:33;24.60;90.20
20977;DHT22;10647;51.016;3.720;2023-07-13T10:07:09;24.70;90.00
20977;DHT22;10647;51.016;3.720;2023-07-13T10:09:37;24.40;90.00
20977;DHT22;10647;51.016;3.720;2023-07-13T10:12:15;23.90;89.70
20977;DHT22;10647;51.016;3.720;2023-07-13T10:14:44;23.40;90.40
20977;DHT22;10647;51.016;3.720;2023-07-13T10:17:14;23.50;90.50
20977;DHT22;10647;51.016;3.720;2023-07-13T10:19:42;24.50;88.80
20977;DHT22;10647;51.016;3.720;2023-07-13T10:22:28;24.80;88.50
20977;DHT22;10647;51.016;3.720;2023-07-13T10:24:57;25.10;87.70
20977;DHT22;10647;51.016;3.720;2023-07-13T10:27:33;24.90;86.80
20977;DHT22;10647;51.016;3.720;2023-07-13T10:30:13;26.60;84.10
20977;DHT22;10647;51.016;3.720;2023-07-13T10:32:40;27.10;79.60
20977;DHT22;10647;51.016;3.720;2023-07-13T10:35:15;27.60;78.20
20977;DHT22;10647;51.016;3.720;2023-07-13T10:37:45;26.40;80.50
20977;DHT22;10647;51.016;3.720;2023-07-13T10:40:18;26.40;79.00
20977;DHT22;10647;51.016;3.720;2023-07-13T10:42:48;25.70;80.80
20977;DHT22;10647;51.016;3.720;2023-07-13T10:45:18;25.30;81.30
20977;DHT22;10647;51.016;3.720;2023-07-13T10:47:47;25.90;81.70
20977;DHT22;10647;51.016;3.720;2023-07-13T10:50:23;25.60;81.30
20977;DHT22;10647;51.016;3.720;2023-07-13T10:53:00;24.80;83.20
20977;DHT22;10647;51.016;3.720;2023-07-13T10:58:28;23.00;93.60
20977;DHT22;10647;51.016;3.720;2023-07-13T11:01:07;22.80;94.60
20977;DHT22;10647;51.016;3.720;2023-07-13T11:03:34;22.30;97.80
20977;DHT22;10647;51.016;3.720;2023-07-13T11:06:15;21.20;99.90
20977;DHT22;10647;51.016;3.720;2023-07-13T11:08:53;20.00;99.90
20977;DHT22;10647;51.016;3.720;2023-07-13T11:11:32;19.70;99.90
20977;DHT22;10647;51.016;3.720;2023-07-13T11:14:02;18.90;99.90
20977;DHT22;10647;51.016;3.720;2023-07-13T11:16:36;18.70;99.90
20977;DHT22;10647;51.016;3.720;2023-07-13T11:21:34;19.30;99.90
20977;DHT22;10647;51.016;3.720;2023-07-13T11:24:04;20.00;99.90
20977;DHT22;10647;51.016;3.720;2023-07-13T11:29:32;20.60;99.90
20977;DHT22;10647;51.016;3.720;2023-07-13T11:31:57;21.30;99.90
20977;DHT22;10647;51.016;3.720;2023-07-13T11:34:31;22.10;99.90
20977;DHT22;10647;51.016;3.720;2023-07-13T11:37:00;22.90;99.90
20977;DHT22;10647;51.016;3.720;2023-07-13T11:39:32;23.00;99.90
20977;DHT22;10647;51.016;3.720;2023-07-13T11:42:06;22.10;99.90
20977;DHT22;10647;51.016;3.720;2023-07-13T11:44:35;21.70;99.90
20977;DHT22;10647;51.016;3.720;2023-07-13T11:47:10;21.80;99.90
20977;DHT22;10647;51.016;3.720;2023-07-13T11:49:48;22.80;99.90
20977;DHT22;10647;51.016;3.720;2023-07-13T11:52:17;21.80;99.90
20977;DHT22;10647;51.016;3.720;2023-07-13T11:54:57;22.30;99.90
20977;DHT22;10647;51.016;3.720;2023-07-13T11:57:37;21.70;99.90
20977;DHT22;10647;51.016;3.720;2023-07-13T12:00:11;22.50;99.90
20977;DHT22;10647;51.016;3.720;2023-07-13T12:02:36;22.30;99.90
20977;DHT22;10647;51.016;3.720;2023-07-13T12:05:06;22.40;99.90
20977;DHT22;10647;51.016;3.720;2023-07-13T12:07:36;23.00;99.90
20977;DHT22;10647;51.016;3.720;2023-07-13T12:10:28;21.90;99.90
20977;DHT22;10647;51.016;3.720;2023-07-13T12:13:04;22.50;99.90
20977;DHT22;10647;51.016;3.720;2023-07-13T12:15:37;23.10;99.90
20977;DHT22;10647;51.016;3.720;2023-07-13T12:18:14;23.60;99.90
20977;DHT22;10647;51.016;3.720;2023-07-13T12:20:42;23.50;99.90
20977;DHT22;10647;51.016;3.720;2023-07-13T12:23:24;24.10;99.90
20977;DHT22;10647;51.016;3.720;2023-07-13T12:25:53;24.00;99.90
20977;DHT22;10647;51.016;3.720;2023-07-13T12:31:02;22.70;99.90
20977;DHT22;10647;51.016;3.720;2023-07-13T12:33:31;23.70;99.90
20977;DHT22;10647;51.016;3.720;2023-07-13T12:36:01;24.30;99.90
20977;DHT22;10647;51.016;3.720;2023-07-13T12:38:31;24.70;99.90
20977;DHT22;10647;51.016;3.720;2023-07-13T12:40:59;24.00;99.90
20977;DHT22;10647;51.016;3.720;2023-07-13T12:43:31;23.50;99.90
20977;DHT22;10647;51.016;3.720;2023-07-13T12:46:04;23.90;99.90
20977;DHT22;10647;51.016;3.720;2023-07-13T12:48:41;23.00;99.90
20977;DHT22;10647;51.016;3.720;2023-07-13T12:51:08;22.30;99.90
20977;DHT22;10647;51.016;3.720;2023-07-13T12:53:41;21.90;99.90
20977;DHT22;10647;51.016;3.720;2023-07-13T12:56:14;22.60;99.90
20977;DHT22;10647;51.016;3.720;2023-07-13T12:58:41;23.30;99.90
20977;DHT22;10647;51.016;3.720;2023-07-13T13:01:13;23.80;99.90
20977;DHT22;10647;51.016;3.720;2023-07-13T13:03:45;24.50;99.90
20977;DHT22;10647;51.016;3.720;2023-07-13T13:08:48;25.50;99.90
20977;DHT22;10647;51.016;3.720;2023-07-13T13:11:17;27.10;99.90
20977;DHT22;10647;51.016;3.720;2023-07-13T13:13:45;27.30;99.90
20977;DHT22;10647;51.016;3.720;2023-07-13T13:18:56;28.70;99.90
20977;DHT22;10647;51.016;3.720;2023-07-13T13:21:24;30.70;99.90
20977;DHT22;10647;51.016;3.720;2023-07-13T13:23:52;31.00;99.90
20977;DHT22;10647;51.016;3.720;2023-07-13T13:26:22;30.40;98.20
20977;DHT22;10647;51.016;3.720;2023-07-13T13:28:49;33.40;99.90
20977;DHT22;10647;51.016;3.720;2023-07-13T13:31:17;35.60;99.10
20977;DHT22;10647;51.016;3.720;2023-07-13T13:33:45;34.00;87.40
20977;DHT22;10647;51.016;3.720;2023-07-13T13:36:19;34.00;96.70
20977;DHT22;10647;51.016;3.720;2023-07-13T13:38:48;33.20;82.00
20977;DHT22;10647;51.016;3.720;2023-07-13T13:41:16;33.00;93.50
20977;DHT22;10647;51.016;3.720;2023-07-13T13:43:49;34.20;81.20
20977;DHT22;10647;51.016;3.720;2023-07-13T13:46:22;36.10;85.80
20977;DHT22;10647;51.016;3.720;2023-07-13T13:48:51;36.70;69.10
20977;DHT22;10647;51.016;3.720;2023-07-13T13:51:21;38.30;63.70
20977;DHT22;10647;51.016;3.720;2023-07-13T13:53:50;35.50;68.10
20977;DHT22;10647;51.016;3.720;2023-07-13T13:56:19;34.90;67.50
20977;DHT22;10647;51.016;3.720;2023-07-13T13:58:46;35.40;66.10
20977;DHT22;10647;51.016;3.720;2023-07-13T14:01:17;35.60;69.60
20977;DHT22;10647;51.016;3.720;2023-07-13T14:03:45;38.10;59.50
20977;DHT22;10647;51.016;3.720;2023-07-13T14:06:15;39.40;56.50
20977;DHT22;10647;51.016;3.720;2023-07-13T14:08:43;39.30;57.00
20977;DHT22;10647;51.016;3.720;2023-07-13T14:11:17;38.60;60.60
20977;DHT22;10647;51.016;3.720;2023-07-13T14:13:54;33.60;67.00
20977;DHT22;10647;51.016;3.720;2023-07-13T14:16:20;35.60;66.00
20977;DHT22;10647;51.016;3.720;2023-07-13T14:18:49;37.80;59.30
20977;DHT22;10647;51.016;3.720;2023-07-13T14:21:19;39.00;57.40
20977;DHT22;10647;51.016;3.720;2023-07-13T14:23:48;40.70;53.50
20977;DHT22;10647;51.016;3.720;2023-07-13T14:26:25;41.80;50.90
20977;DHT22;10647;51.016;3.720;2023-07-13T14:28:55;40.70;50.50
20977;DHT22;10647;51.016;3.720;2023-07-13T14:31:25;42.30;51.70
20977;DHT22;10647;51.016;3.720;2023-07-13T14:33:56;43.40;48.60
20977;DHT22;10647;51.016;3.720;2023-07-13T14:36:32;39.00;45.30
20977;DHT22;10647;51.016;3.720;2023-07-13T14:39:05;38.20;47.90
20977;DHT22;10647;51.016;3.720;2023-07-13T14:41:30;38.40;51.50
20977;DHT22;10647;51.016;3.720;2023-07-13T14:43:57;38.80;50.10
20977;DHT22;10647;51.016;3.720;2023-07-13T14:46:30;40.90;49.90
20977;DHT22;10647;51.016;3.720;2023-07-13T14:49:03;42.40;47.10
20977;DHT22;10647;51.016;3.720;2023-07-13T14:51:32;42.80;47.20
20977;DHT22;10647;51.016;3.720;2023-07-13T14:54:04;40.90;48.20
20977;DHT22;10647;51.016;3.720;2023-07-13T14:56:32;37.40;49.10
20977;DHT22;10647;51.016;3.720;2023-07-13T14:59:00;36.60;49.60
20977;DHT22;10647;51.016;3.720;2023-07-13T15:01:27;35.10;56.00
20977;DHT22;10647;51.016;3.720;2023-07-13T15:03:58;32.80;54.90
20977;DHT22;10647;51.016;3.720;2023-07-13T15:06:25;34.10;57.10
20977;DHT22;10647;51.016;3.720;2023-07-13T15:08:53;33.80;56.80
20977;DHT22;10647;51.016;3.720;2023-07-13T15:11:22;34.40;55.20
20977;DHT22;10647;51.016;3.720;2023-07-13T15:13:49;33.90;55.20
20977;DHT22;10647;51.016;3.720;2023-07-13T15:16:24;35.20;51.40
20977;DHT22;10647;51.016;3.720;2023-07-13T15:18:52;37.70;50.20
20977;DHT22;10647;51.016;3.720;2023-07-13T15:21:23;39.80;44.10
20977;DHT22;10647;51.016;3.720;2023-07-13T15:23:51;39.80;44.60
20977;DHT22;10647;51.016;3.720;2023-07-13T15:26:19;40.30;42.00
20977;DHT22;10647;51.016;3.720;2023-07-13T15:28:47;37.10;45.90
20977;DHT22;10647;51.016;3.720;2023-07-13T15:31:21;37.30;46.90
20977;DHT22;10647;51.016;3.720;2023-07-13T15:33:50;39.90;44.10
20977;DHT22;10647;51.016;3.720;2023-07-13T15:36:19;40.80;41.90
20977;DHT22;10647;51.016;3.720;2023-07-13T15:38:48;41.30;40.30
20977;DHT22;10647;51.016;3.720;2023-07-13T15:41:27;41.10;40.50
20977;DHT22;10647;51.016;3.720;2023-07-13T15:43:57;40.60;41.90
20977;DHT22;10647;51.016;3.720;2023-07-13T15:46:27;41.20;41.10
20977;DHT22;10647;51.016;3.720;2023-07-13T15:48:57;38.50;42.70
20977;DHT22;10647;51.016;3.720;2023-07-13T15:51:27;36.20;44.70
20977;DHT22;10647;51.016;3.720;2023-07-13T15:53:57;35.70;45.30
20977;DHT22;10647;51.016;3.720;2023-07-13T15:56:26;34.40;47.80
20977;DHT22;10647;51.016;3.720;2023-07-13T16:01:42;33.20;49.80
20977;DHT22;10647;51.016;3.720;2023-07-13T16:04:12;32.20;50.30
20977;DHT22;10647;51.016;3.720;2023-07-13T16:06:41;30.50;53.10
20977;DHT22;10647;51.016;3.720;2023-07-13T16:09:13;30.10;55.10
20977;DHT22;10647;51.016;3.720;2023-07-13T16:11:39;29.00;55.90
20977;DHT22;10647;51.016;3.720;2023-07-13T16:14:08;29.70;55.90
20977;DHT22;10647;51.016;3.720;2023-07-13T16:16:36;29.70;56.20